Time,TemperatureF,DewpointF,PressureIn,WindDirection,WindDirectionDegrees,WindSpeedMPH,WindSpeedGustMPH,Humidity,HourlyPrecipIn,Conditions,Clouds,dailyrainin,SoftwareType,DateUTC
2013-01-15 00:00:00,16.0,13.0,-100.00,WNW,296,2.0,14.0,88,-99.99,,,-99.99,,2013-01-15 07:00:00,
2013-01-15 00:33:00,16.0,13.0,-100.00,WNW,296,2.0,14.0,88,-99.99,,,-99.99,,2013-01-15 07:33:00,
2013-01-15 00:42:00,16.0,13.0,-100.00,WNW,296,2.0,14.0,88,-99.99,,,-99.99,,2013-01-15 07:42:00,
2013-01-15 00:52:00,16.0,13.0,-100.00,WNW,296,2.0,14.0,88,-99.99,,,-99.99,,2013-01-15 07:52:00,
2013-01-15 01:00:00,17.0,14.0,-100.00,NW,312,0.0,1.0,88,-99.99,,,-99.99,,2013-01-15 08:00:00,
2013-01-15 01:33:00,17.0,14.0,-100.00,NW,312,0.0,1.0,88,-99.99,,,-99.99,,2013-01-15 08:33:00,
2013-01-15 01:43:00,17.0,14.0,-100.00,NW,312,0.0,1.0,88,-99.99,,,-99.99,,2013-01-15 08:43:00,
2013-01-15 01:53:00,17.0,14.0,-100.00,NW,312,0.0,1.0,88,-99.99,,,-99.99,,2013-01-15 08:53:00,
2013-01-15 02:00:00,17.0,14.0,-100.00,NW,307,1.0,7.0,87,-99.99,,,-99.99,,2013-01-15 09:00:00,
2013-01-15 02:33:00,17.0,14.0,-100.00,NW,307,1.0,7.0,87,-99.99,,,-99.99,,2013-01-15 09:33:00,
2013-01-15 02:42:00,17.0,14.0,-100.00,NW,307,1.0,7.0,87,-99.99,,,-99.99,,2013-01-15 09:42:00,
2013-01-15 02:52:00,17.0,14.0,-100.00,NW,307,1.0,7.0,87,-99.99,,,-99.99,,2013-01-15 09:52:00,
2013-01-15 03:00:00,17.0,14.0,-100.00,NW,317,2.0,7.0,88,-99.99,,,-99.99,,2013-01-15 10:00:00,
2013-01-15 03:33:00,17.0,14.0,-100.00,NW,317,2.0,7.0,88,-99.99,,,-99.99,,2013-01-15 10:33:00,
2013-01-15 03:42:00,17.0,14.0,-100.00,NW,317,2.0,7.0,88,-99.99,,,-99.99,,2013-01-15 10:42:00,
2013-01-15 03:52:00,17.0,14.0,-100.00,NW,317,2.0,7.0,88,-99.99,,,-99.99,,2013-01-15 10:52:00,
2013-01-15 04:00:00,18.0,15.0,-100.00,NW,322,0.0,4.0,88,-99.99,,,-99.99,,2013-01-15 11:00:00,
2013-01-15 04:33:00,18.0,15.0,-100.00,NW,322,0.0,4.0,88,-99.99,,,-99.99,,2013-01-15 11:33:00,
2013-01-15 04:43:00,18.0,15.0,-100.00,NW,322,0.0,4.0,88,-99.99,,,-99.99,,2013-01-15 11:43:00,
2013-01-15 04:53:00,18.0,15.0,-100.00,NW,322,0.0,4.0,88,-99.99,,,-99.99,,2013-01-15 11:53:00,
2013-01-15 05:00:00,19.0,16.0,-100.00,West,271,0.0,3.0,88,-99.99,,,-99.99,,2013-01-15 12:00:00,
2013-01-15 05:33:00,19.0,16.0,-100.00,West,271,0.0,3.0,88,-99.99,,,-99.99,,2013-01-15 12:33:00,
2013-01-15 05:43:00,19.0,16.0,-100.00,West,271,0.0,3.0,88,-99.99,,,-99.99,,2013-01-15 12:43:00,
2013-01-15 05:53:00,19.0,16.0,-100.00,West,271,0.0,3.0,88,-99.99,,,-99.99,,2013-01-15 12:53:00,
2013-01-15 06:00:00,19.0,16.0,-100.00,WNW,282,1.0,5.0,88,-99.99,,,-99.99,,2013-01-15 13:00:00,
2013-01-15 06:33:00,19.0,16.0,-100.00,WNW,282,1.0,5.0,88,-99.99,,,-99.99,,2013-01-15 13:33:00,
2013-01-15 06:43:00,19.0,16.0,-100.00,WNW,282,1.0,5.0,88,-99.99,,,-99.99,,2013-01-15 13:43:00,
2013-01-15 06:53:00,19.0,16.0,-100.00,WNW,282,1.0,5.0,88,-99.99,,,-99.99,,2013-01-15 13:53:00,
2013-01-15 07:00:00,20.0,17.0,-100.00,WNW,289,4.0,12.0,89,-99.99,,,-99.99,,2013-01-15 14:00:00,
2013-01-15 07:33:00,20.0,17.0,-100.00,WNW,289,4.0,12.0,89,-99.99,,,-99.99,,2013-01-15 14:33:00,
2013-01-15 07:43:00,20.0,17.0,-100.00,WNW,289,4.0,12.0,89,-99.99,,,-99.99,,2013-01-15 14:43:00,
2013-01-15 07:53:00,20.0,17.0,-100.00,WNW,289,4.0,12.0,89,-99.99,,,-99.99,,2013-01-15 14:53:00,
2013-01-15 08:00:00,21.0,18.0,-100.00,WNW,295,3.0,15.0,89,-99.99,,,-99.99,,2013-01-15 15:00:00,
2013-01-15 08:33:00,21.0,18.0,-100.00,WNW,295,3.0,15.0,89,-99.99,,,-99.99,,2013-01-15 15:33:00,
2013-01-15 08:43:00,21.0,18.0,-100.00,WNW,295,3.0,15.0,89,-99.99,,,-99.99,,2013-01-15 15:43:00,
2013-01-15 08:53:00,21.0,18.0,-100.00,WNW,295,3.0,15.0,89,-99.99,,,-99.99,,2013-01-15 15:53:00,
2013-01-15 09:00:00,21.0,19.0,-100.00,NW,308,1.0,9.0,90,-99.99,,,-99.99,,2013-01-15 16:00:00,
2013-01-15 09:33:00,21.0,19.0,-100.00,NW,308,1.0,9.0,90,-99.99,,,-99.99,,2013-01-15 16:33:00,
2013-01-15 09:43:00,21.0,19.0,-100.00,NW,308,1.0,9.0,90,-99.99,,,-99.99,,2013-01-15 16:43:00,
2013-01-15 09:53:00,21.0,19.0,-100.00,NW,308,1.0,9.0,90,-99.99,,,-99.99,,2013-01-15 16:53:00,
2013-01-15 10:00:00,22.0,20.0,-100.00,WNW,299,1.0,11.0,89,-99.99,,,-99.99,,2013-01-15 17:00:00,
2013-01-15 10:33:00,22.0,20.0,-100.00,WNW,299,1.0,11.0,89,-99.99,,,-99.99,,2013-01-15 17:33:00,
2013-01-15 10:43:00,22.0,20.0,-100.00,WNW,299,1.0,11.0,89,-99.99,,,-99.99,,2013-01-15 17:43:00,
2013-01-15 10:53:00,22.0,20.0,-100.00,WNW,299,1.0,11.0,89,-99.99,,,-99.99,,2013-01-15 17:53:00,
2013-01-15 11:00:00,23.0,21.0,-100.00,WNW,293,3.0,11.0,89,-99.99,,,-99.99,,2013-01-15 18:00:00,
2013-01-15 11:33:00,23.0,21.0,-100.00,WNW,293,3.0,11.0,89,-99.99,,,-99.99,,2013-01-15 18:33:00,
2013-01-15 11:43:00,23.0,21.0,-100.00,WNW,293,3.0,11.0,89,-99.99,,,-99.99,,2013-01-15 18:43:00,
2013-01-15 11:53:00,23.0,21.0,-100.00,WNW,293,3.0,11.0,89,-99.99,,,-99.99,,2013-01-15 18:53:00,
2013-01-15 12:00:00,23.0,20.0,-100.00,WNW,295,9.0,16.0,89,-99.99,,,-99.99,,2013-01-15 19:00:00,
2013-01-15 12:33:00,23.0,20.0,-100.00,WNW,295,9.0,16.0,89,-99.99,,,-99.99,,2013-01-15 19:33:00,
2013-01-15 12:43:00,23.0,20.0,-100.00,WNW,295,9.0,16.0,89,-99.99,,,-99.99,,2013-01-15 19:43:00,
2013-01-15 12:53:00,23.0,20.0,-100.00,WNW,295,9.0,16.0,89,-99.99,,,-99.99,,2013-01-15 19:53:00,
2013-01-15 13:00:00,23.0,20.0,-100.00,NW,304,5.0,12.0,88,-99.99,,,-99.99,,2013-01-15 20:00:00,
2013-01-15 13:33:00,23.0,20.0,-100.00,NW,304,5.0,12.0,88,-99.99,,,-99.99,,2013-01-15 20:33:00,
2013-01-15 13:43:00,23.0,20.0,-100.00,NW,304,5.0,12.0,88,-99.99,,,-99.99,,2013-01-15 20:43:00,
2013-01-15 13:53:00,23.0,20.0,-100.00,NW,304,5.0,12.0,88,-99.99,,,-99.99,,2013-01-15 20:53:00,
2013-01-15 14:00:00,26.0,23.0,-100.00,WNW,283,2.0,11.0,89,-99.99,,,-99.99,,2013-01-15 21:00:00,
2013-01-15 14:34:00,26.0,23.0,-100.00,WNW,283,2.0,11.0,89,-99.99,,,-99.99,,2013-01-15 21:34:00,
2013-01-15 14:43:00,26.0,23.0,-100.00,WNW,283,2.0,11.0,89,-99.99,,,-99.99,,2013-01-15 21:43:00,
2013-01-15 14:53:00,26.0,23.0,-100.00,WNW,283,2.0,11.0,89,-99.99,,,-99.99,,2013-01-15 21:53:00,
2013-01-15 15:00:00,25.0,22.0,-100.00,NW,305,2.0,9.0,87,-99.99,,,-99.99,,2013-01-15 22:00:00,
2013-01-15 15:33:00,25.0,22.0,-100.00,NW,305,2.0,9.0,87,-99.99,,,-99.99,,2013-01-15 22:33:00,
2013-01-15 15:43:00,25.0,22.0,-100.00,NW,305,2.0,9.0,87,-99.99,,,-99.99,,2013-01-15 22:43:00,
2013-01-15 15:53:00,25.0,22.0,-100.00,NW,305,2.0,9.0,87,-99.99,,,-99.99,,2013-01-15 22:53:00,
2013-01-15 16:00:00,24.0,21.0,-100.00,WNW,283,4.0,14.0,87,-99.99,,,-99.99,,2013-01-15 23:00:00,
2013-01-15 16:33:00,24.0,21.0,-100.00,WNW,283,4.0,14.0,87,-99.99,,,-99.99,,2013-01-15 23:33:00,
2013-01-15 16:43:00,24.0,21.0,-100.00,WNW,283,4.0,14.0,87,-99.99,,,-99.99,,2013-01-15 23:43:00,
2013-01-15 16:53:00,24.0,21.0,-100.00,WNW,283,4.0,14.0,87,-99.99,,,-99.99,,2013-01-15 23:53:00,
2013-01-15 17:00:00,23.0,20.0,-100.00,WNW,283,7.0,24.0,87,-99.99,,,-99.99,,2013-01-16 00:00:00,
2013-01-15 17:33:00,23.0,20.0,-100.00,WNW,283,7.0,24.0,87,-99.99,,,-99.99,,2013-01-16 00:33:00,
2013-01-15 17:43:00,23.0,20.0,-100.00,WNW,283,7.0,24.0,87,-99.99,,,-99.99,,2013-01-16 00:43:00,
2013-01-15 17:53:00,23.0,20.0,-100.00,WNW,283,7.0,24.0,87,-99.99,,,-99.99,,2013-01-16 00:53:00,
2013-01-15 18:00:00,22.0,17.0,-100.00,WNW,297,10.0,24.0,78,-99.99,,,-99.99,,2013-01-16 01:00:00,
2013-01-15 18:33:00,22.0,17.0,-100.00,WNW,297,10.0,24.0,78,-99.99,,,-99.99,,2013-01-16 01:33:00,
2013-01-15 18:43:00,22.0,17.0,-100.00,WNW,297,10.0,24.0,78,-99.99,,,-99.99,,2013-01-16 01:43:00,
2013-01-15 18:53:00,22.0,17.0,-100.00,WNW,297,10.0,24.0,78,-99.99,,,-99.99,,2013-01-16 01:53:00,
2013-01-15 19:00:00,25.0,13.0,-100.00,WNW,302,4.0,16.0,58,-99.99,,,-99.99,,2013-01-16 02:00:00,
2013-01-15 19:33:00,25.0,13.0,-100.00,WNW,302,4.0,16.0,58,-99.99,,,-99.99,,2013-01-16 02:33:00,
2013-01-15 19:43:00,25.0,13.0,-100.00,WNW,302,4.0,16.0,58,-99.99,,,-99.99,,2013-01-16 02:43:00,
2013-01-15 19:53:00,25.0,13.0,-100.00,WNW,302,4.0,16.0,58,-99.99,,,-99.99,,2013-01-16 02:53:00,
2013-01-15 20:00:00,27.0,6.0,-100.00,WNW,292,4.0,16.0,40,-99.99,,,-99.99,,2013-01-16 03:00:00,
2013-01-15 20:33:00,27.0,6.0,-100.00,WNW,292,4.0,16.0,40,-99.99,,,-99.99,,2013-01-16 03:33:00,
2013-01-15 20:43:00,27.0,6.0,-100.00,WNW,292,4.0,16.0,40,-99.99,,,-99.99,,2013-01-16 03:43:00,
2013-01-15 20:53:00,27.0,6.0,-100.00,WNW,292,4.0,16.0,40,-99.99,,,-99.99,,2013-01-16 03:53:00,
2013-01-15 22:00:00,30.0,3.0,-100.00,WNW,297,3.0,13.0,30,-99.99,,,-99.99,,2013-01-16 05:00:00,
2013-01-15 22:33:00,30.0,3.0,-100.00,WNW,297,3.0,13.0,30,-99.99,,,-99.99,,2013-01-16 05:33:00,
2013-01-15 22:42:00,30.0,3.0,-100.00,WNW,297,3.0,13.0,30,-99.99,,,-99.99,,2013-01-16 05:42:00,
2013-01-15 22:53:00,30.0,3.0,-100.00,WNW,297,3.0,13.0,30,-99.99,,,-99.99,,2013-01-16 05:53:00,
2013-01-15 23:00:00,31.0,0.0,-100.00,NW,319,4.0,21.0,26,-99.99,,,-99.99,,2013-01-16 06:00:00,
2013-01-15 23:33:00,31.0,0.0,-100.00,NW,319,4.0,21.0,26,-99.99,,,-99.99,,2013-01-16 06:33:00,
2013-01-15 23:43:00,31.0,0.0,-100.00,NW,319,4.0,21.0,26,-99.99,,,-99.99,,2013-01-16 06:43:00,
2013-01-15 23:53:00,31.0,0.0,-100.00,NW,319,4.0,21.0,26,-99.99,,,-99.99,,2013-01-16 06:53:00,